Time;durP1;ratioP1;P1;durP2;ratioP2;P2;SDS_P1;SDS_P2;PMS_P1;PMS_P2;Temp;Humidity;BMP_temperature;BMP_pressure;BME280_temperature;BME280_humidity;BME280_pressure;Samples;Min_cycle;Max_cycle;Signal;HPM_P1;HPM_P2
2023/02/22 00:01:18;;;;;;;12.77;6.68;;;;;;;2.73;100.00;98711.00;4941794;28;20036;-75
2023/02/22 00:03:48;;;;;;;15.85;7.90;;;;;;;2.77;100.00;98725.69;4957237;28;20031;-76
2023/02/22 00:06:19;;;;;;;15.90;7.60;;;;;;;2.67;100.00;98708.09;4961929;28;20066;-76
2023/02/22 00:08:48;;;;;;;16.98;8.30;;;;;;;2.74;100.00;98734.03;4970501;28;20401;-76
2023/02/22 00:11:13;;;;;;;15.57;7.45;;;;;;;2.64;100.00;98717.25;4921600;28;20385;-76
2023/02/22 00:13:43;;;;;;;14.10;7.80;;;;;;;2.71;100.00;98729.00;4926191;28;20039;-76
2023/02/22 00:16:11;;;;;;;15.35;7.47;;;;;;;2.69;100.00;98725.66;4929695;28;20107;-76
2023/02/22 00:18:37;;;;;;;15.77;7.95;;;;;;;2.57;100.00;98701.03;5005828;28;20086;-76
2023/02/22 00:21:03;;;;;;;13.35;7.30;;;;;;;2.77;100.00;98727.53;4971387;28;20031;-76
2023/02/22 00:23:30;;;;;;;14.07;7.15;;;;;;;2.68;100.00;98715.13;4968418;28;20110;-75
2023/02/22 00:25:57;;;;;;;17.48;7.35;;;;;;;2.74;100.00;98719.84;4936208;29;20023;-76
2023/02/22 00:28:23;;;;;;;17.67;7.88;;;;;;;2.76;100.00;98717.88;4932286;29;20036;-76
2023/02/22 00:30:49;;;;;;;16.05;8.18;;;;;;;2.68;100.00;98701.78;4934198;28;20028;-75
2023/02/22 00:33:16;;;;;;;15.93;8.27;;;;;;;2.68;100.00;98715.13;4952759;28;20177;-75
2023/02/22 00:35:44;;;;;;;17.40;8.32;;;;;;;2.51;100.00;98714.16;4955060;28;20031;-76
2023/02/22 00:38:11;;;;;;;15.98;7.90;;;;;;;2.45;100.00;98717.44;4936648;29;20489;-76
2023/02/22 00:40:36;;;;;;;15.10;7.55;;;;;;;2.38;100.00;98707.38;4938008;28;20039;-76
2023/02/22 00:43:03;;;;;;;18.25;8.20;;;;;;;2.55;100.00;98715.53;4931528;28;20038;-76
2023/02/22 00:45:31;;;;;;;15.80;7.63;;;;;;;2.60;100.00;98705.22;4919262;29;20036;-75
2023/02/22 00:47:57;;;;;;;17.77;7.35;;;;;;;2.50;100.00;98699.13;4919746;28;20032;-76
2023/02/22 00:50:25;;;;;;;16.35;8.05;;;;;;;2.53;100.00;98714.84;4965386;28;20032;-75
2023/02/22 00:52:53;;;;;;;13.25;6.90;;;;;;;2.40;100.00;98708.06;4936195;28;20035;-76
2023/02/22 00:55:22;;;;;;;13.85;7.55;;;;;;;2.26;100.00;98681.91;4958576;28;20035;-75
2023/02/22 00:57:48;;;;;;;13.23;7.25;;;;;;;2.38;100.00;98704.72;5007265;28;20030;-76
2023/02/22 01:00:38;;;;;;;18.20;7.47;;;;;;;2.33;100.00;98699.00;4927414;29;20454;-76
2023/02/22 01:03:05;;;;;;;19.05;7.90;;;;;;;2.19;100.00;98687.00;4979056;28;20084;-76
2023/02/22 01:05:32;;;;;;;21.05;8.43;;;;;;;2.24;100.00;98697.25;5026270;28;20288;-76
2023/02/22 01:07:59;;;;;;;16.88;8.25;;;;;;;2.34;100.00;98702.50;5006755;28;20051;-76
2023/02/22 01:10:26;;;;;;;16.65;8.35;;;;;;;2.40;100.00;98699.22;4950846;28;20016;-76
2023/02/22 01:12:53;;;;;;;13.82;7.25;;;;;;;2.30;100.00;98675.25;4951459;28;20039;-76
2023/02/22 01:15:20;;;;;;;18.70;7.07;;;;;;;2.30;100.00;98688.59;4951444;28;20051;-76
2023/02/22 01:17:47;;;;;;;16.58;7.70;;;;;;;2.10;100.00;98679.09;4989496;28;20023;-76
2023/02/22 01:20:12;;;;;;;16.88;6.75;;;;;;;2.04;100.00;98687.69;4959246;28;20047;-76
2023/02/22 01:22:43;;;;;;;17.23;6.80;;;;;;;1.88;100.00;98685.72;4979601;28;20154;-76
2023/02/22 01:25:09;;;;;;;11.05;6.47;;;;;;;1.83;100.00;98664.81;4963568;29;20063;-76
2023/02/22 01:27:35;;;;;;;15.52;6.97;;;;;;;1.94;100.00;98674.44;4985783;28;20009;-75
2023/02/22 01:30:07;;;;;;;15.38;6.93;;;;;;;2.00;100.00;98671.16;4950752;28;20038;-76
2023/02/22 01:32:36;;;;;;;13.27;7.20;;;;;;;1.96;100.00;98659.97;4952032;28;20029;-76
2023/02/22 01:35:03;;;;;;;13.18;7.10;;;;;;;2.01;100.00;98661.31;4947767;29;20026;-76
2023/02/22 01:37:30;;;;;;;13.70;7.47;;;;;;;2.05;100.00;98652.88;4968605;28;20690;-75
2023/02/22 01:39:55;;;;;;;11.15;6.95;;;;;;;2.18;100.00;98658.66;4923290;28;20031;-76
2023/02/22 01:42:20;;;;;;;16.40;7.88;;;;;;;2.11;100.00;98651.41;4930160;28;20027;-76
2023/02/22 01:45:37;;;;;;;16.35;7.57;;;;;;;2.19;100.00;98662.16;4933454;29;20066;-76
2023/02/22 01:48:05;;;;;;;16.08;7.35;;;;;;;2.24;100.00;98659.03;4934707;29;20038;-75
2023/02/22 01:50:36;;;;;;;12.27;6.70;;;;;;;2.16;100.00;98655.28;5015109;28;20030;-76
2023/02/22 01:53:02;;;;;;;16.63;6.95;;;;;;;1.98;100.00;98649.97;4929530;28;20078;-76
2023/02/22 01:55:28;;;;;;;14.95;6.88;;;;;;;2.02;100.00;98649.66;4959029;28;20021;-76
2023/02/22 01:57:53;;;;;;;15.73;7.32;;;;;;;2.01;100.00;98643.47;4983884;28;20486;-76
2023/02/22 02:00:21;;;;;;;16.33;6.65;;;;;;;2.12;100.00;98645.06;4921923;29;20035;-76
2023/02/22 02:02:55;;;;;;;20.55;8.73;;;;;;;2.17;100.00;98645.44;4951620;28;20492;-76
2023/02/22 02:05:23;;;;;;;15.00;7.38;;;;;;;2.10;100.00;98647.06;4932467;28;20150;-76
2023/02/22 02:07:48;;;;;;;16.67;7.63;;;;;;;1.95;100.00;98642.25;4940655;29;20406;-76
2023/02/22 02:10:14;;;;;;;17.55;8.10;;;;;;;1.83;100.00;98637.31;4930697;28;20035;-76
2023/02/22 02:12:43;;;;;;;15.52;7.20;;;;;;;1.78;100.00;98637.75;4933523;28;20027;-76
2023/02/22 02:15:25;;;;;;;16.85;7.82;;;;;;;1.82;100.00;98654.31;4941338;28;20906;-75
2023/02/22 02:17:53;;;;;;;14.20;6.95;;;;;;;1.81;100.00;98641.94;4944947;29;20397;-76
2023/02/22 02:20:28;;;;;;;15.80;7.22;;;;;;;1.79;100.00;98638.63;4942068;28;20032;-76
2023/02/22 02:23:30;;;;;;;16.70;7.15;;;;;;;1.74;100.00;98637.22;4935200;29;20150;-76
2023/02/22 02:26:35;;;;;;;14.90;6.90;;;;;;;1.75;100.00;98627.38;4958066;28;20036;-76
2023/02/22 02:29:34;;;;;;;13.80;7.07;;;;;;;1.70;100.00;98613.66;4986292;28;20040;-76
2023/02/22 02:32:27;;;;;;;17.05;7.03;;;;;;;1.83;100.00;98613.28;4944364;28;20099;-75
2023/02/22 02:35:10;;;;;;;16.05;7.28;;;;;;;1.82;100.00;98600.97;4931392;28;20111;-76
2023/02/22 02:38:07;;;;;;;18.90;6.53;;;;;;;1.92;100.00;98604.41;4962390;28;20479;-76
2023/02/22 02:41:00;;;;;;;10.95;6.38;;;;;;;1.87;100.00;98607.50;4970760;28;20439;-75
2023/02/22 02:43:36;;;;;;;12.65;6.47;;;;;;;1.85;100.00;98608.66;4926318;28;20035;-75
2023/02/22 02:46:07;;;;;;;9.63;5.70;;;;;;;1.81;100.00;98605.47;4937610;29;20042;-75
2023/02/22 02:48:34;;;;;;;13.70;6.80;;;;;;;1.70;100.00;98608.34;4934425;29;20071;-75
2023/02/22 02:51:02;;;;;;;16.30;6.78;;;;;;;1.49;100.00;98588.16;4935085;29;20027;-75
2023/02/22 02:53:38;;;;;;;13.93;6.40;;;;;;;1.44;100.00;98595.78;4940068;28;20027;-75
2023/02/22 02:56:03;;;;;;;14.15;6.40;;;;;;;1.37;100.00;98596.53;4940266;29;20039;-75
2023/02/22 02:58:29;;;;;;;12.63;5.78;;;;;;;1.24;100.00;98599.53;4933260;29;20058;-75
2023/02/22 03:00:58;;;;;;;13.30;5.80;;;;;;;1.31;100.00;98601.47;4926292;29;20035;-75
2023/02/22 03:03:23;;;;;;;;;;;;;;;1.40;100.00;98602.38;4932677;29;20027;-75
2023/02/22 03:06:08;;;;;;;11.27;5.90;;;;;;;1.53;100.00;98586.84;4918772;28;19922;-75
2023/02/22 03:09:07;;;;;;;12.57;6.18;;;;;;;1.60;100.00;98579.09;4941101;28;20116;-75
2023/02/22 03:12:12;;;;;;;14.48;6.57;;;;;;;1.70;100.00;98579.00;4946585;28;20067;-75
2023/02/22 03:14:59;;;;;;;19.40;7.05;;;;;;;1.72;100.00;98577.03;4937088;28;20500;-75
2023/02/22 03:17:44;;;;;;;12.50;6.30;;;;;;;1.78;100.00;98584.41;4930361;28;20427;-75
2023/02/22 03:20:13;;;;;;;10.13;6.03;;;;;;;1.82;100.00;98575.13;4929150;28;20550;-75
2023/02/22 03:22:53;;;;;;;12.75;6.47;;;;;;;1.73;100.00;98566.22;4943895;28;20545;-75
2023/02/22 03:25:45;;;;;;;11.02;6.43;;;;;;;1.74;100.00;98577.72;5003119;28;20058;-75
2023/02/22 03:28:16;;;;;;;16.15;6.10;;;;;;;1.61;100.00;98570.09;4948780;29;20035;-75
2023/02/22 03:30:47;;;;;;;12.85;6.10;;;;;;;1.63;100.00;98575.28;4942313;28;20028;-75
2023/02/22 03:33:35;;;;;;;15.80;6.30;;;;;;;1.65;100.00;98573.28;4919347;29;20171;-75
2023/02/22 03:36:12;;;;;;;13.32;6.85;;;;;;;1.61;100.00;98570.09;4926752;28;20032;-75
2023/02/22 03:38:40;;;;;;;14.27;6.68;;;;;;;1.51;100.00;98556.84;4946284;29;20031;-76
2023/02/22 03:41:08;;;;;;;14.35;7.18;;;;;;;1.49;100.00;98558.84;4935841;28;20065;-76
2023/02/22 03:43:40;;;;;;;18.50;6.93;;;;;;;1.35;100.00;98550.50;4929417;28;20032;-76
2023/02/22 03:46:08;;;;;;;11.25;6.65;;;;;;;1.33;100.00;98553.31;4924492;29;20047;-75
2023/02/22 03:48:53;;;;;;;12.00;5.80;;;;;;;1.40;100.00;98570.38;4938729;29;20055;-75
2023/02/22 03:51:19;;;;;;;17.65;7.03;;;;;;;1.30;100.00;98566.94;4951127;28;20017;-76
2023/02/22 03:53:46;;;;;;;10.70;6.40;;;;;;;1.33;100.00;98571.97;5021802;28;20162;-76
2023/02/22 03:56:18;;;;;;;18.52;7.32;;;;;;;1.35;100.00;98564.66;4943503;28;20038;-76
2023/02/22 03:58:49;;;;;;;18.13;7.10;;;;;;;1.40;100.00;98566.88;4943994;28;20031;-75
2023/02/22 04:01:15;;;;;;;19.60;6.55;;;;;;;1.43;100.00;98571.91;4973886;28;20028;-75
2023/02/22 04:03:41;;;;;;;15.80;6.72;;;;;;;1.49;100.00;98569.50;4977484;28;20032;-75
2023/02/22 04:06:07;;;;;;;12.90;6.05;;;;;;;1.45;100.00;98568.13;4922804;28;20032;-75
2023/02/22 04:08:32;;;;;;;13.20;6.65;;;;;;;1.38;100.00;98576.84;4930791;28;20031;-75
2023/02/22 04:10:58;;;;;;;15.20;6.10;;;;;;;1.28;100.00;98576.91;4937209;28;20055;-75
2023/02/22 04:13:23;;;;;;;15.90;6.60;;;;;;;1.23;100.00;98576.53;4984696;28;20485;-75
2023/02/22 04:15:48;;;;;;;12.85;6.40;;;;;;;1.09;100.00;98570.72;4919561;28;20074;-75
2023/02/22 04:18:14;;;;;;;13.95;6.25;;;;;;;0.95;100.00;98570.38;4926271;28;20027;-75
2023/02/22 04:20:39;;;;;;;11.85;6.28;;;;;;;0.84;100.00;98558.94;4962153;28;20045;-75
2023/02/22 04:23:04;;;;;;;10.63;5.95;;;;;;;0.84;100.00;98572.25;4946175;28;20030;-75
2023/02/22 04:25:30;;;;;;;11.15;6.82;;;;;;;0.83;100.00;98575.06;4944475;28;20028;-75
2023/02/22 04:27:55;;;;;;;13.40;6.70;;;;;;;0.72;100.00;98544.13;4937719;29;20024;-75
2023/02/22 04:30:21;;;;;;;17.55;6.30;;;;;;;0.82;100.00;98560.91;4957649;28;20025;-75
2023/02/22 04:32:46;;;;;;;13.05;6.53;;;;;;;0.77;100.00;98562.34;5002153;28;20497;-75
2023/02/22 04:35:12;;;;;;;12.30;5.80;;;;;;;0.71;100.00;98549.59;4939955;28;20039;-75
2023/02/22 04:37:37;;;;;;;19.52;6.80;;;;;;;0.78;100.00;98556.84;4932351;29;20028;-75
2023/02/22 04:40:07;;;;;;;14.52;6.60;;;;;;;0.70;100.00;98548.75;5018735;28;20437;-75
2023/02/22 04:42:36;;;;;;;12.57;6.65;;;;;;;0.81;100.00;98571.69;4924792;29;20099;-75
2023/02/22 04:45:03;;;;;;;10.20;6.38;;;;;;;0.86;100.00;98561.44;4933448;29;20105;-75
2023/02/22 04:47:28;;;;;;;11.55;6.30;;;;;;;0.81;100.00;98550.41;4921368;28;20028;-75
2023/02/22 04:49:54;;;;;;;12.80;6.25;;;;;;;0.80;100.00;98552.22;4971738;28;20096;-75
2023/02/22 04:52:19;;;;;;;17.90;6.43;;;;;;;0.72;100.00;98538.81;4933855;28;20036;-75
2023/02/22 04:54:45;;;;;;;11.07;6.18;;;;;;;0.80;100.00;98549.56;4933507;29;20067;-75
2023/02/22 04:57:10;;;;;;;14.50;6.63;;;;;;;0.81;100.00;98543.25;4927742;29;20046;-77
2023/02/22 04:59:36;;;;;;;15.07;7.40;;;;;;;0.80;100.00;98546.91;4914766;28;20444;-73
2023/02/22 05:02:01;;;;;;;13.10;7.78;;;;;;;0.87;100.00;98563.13;4927809;28;20055;-75
2023/02/22 05:04:27;;;;;;;14.98;7.05;;;;;;;0.77;100.00;98555.19;4928872;28;20036;-78
2023/02/22 05:06:52;;;;;;;16.52;7.25;;;;;;;0.80;100.00;98551.38;4977468;28;20040;-78
2023/02/22 05:09:18;;;;;;;12.00;7.10;;;;;;;0.95;100.00;98551.75;4931021;28;20028;-75
2023/02/22 05:11:43;;;;;;;14.48;6.65;;;;;;;0.92;100.00;98560.88;4920069;28;20028;-74
2023/02/22 05:14:10;;;;;;;12.10;7.40;;;;;;;0.90;100.00;98554.00;4927117;28;20038;-73
2023/02/22 05:16:35;;;;;;;13.25;7.28;;;;;;;0.91;100.00;98553.84;4920664;28;20401;-75
2023/02/22 05:19:01;;;;;;;14.40;6.43;;;;;;;0.84;100.00;98547.47;4931015;28;20031;-76
2023/02/22 05:21:26;;;;;;;12.63;6.32;;;;;;;0.88;100.00;98557.66;4942174;28;20032;-74
2023/02/22 05:23:51;;;;;;;15.23;6.00;;;;;;;0.73;100.00;98529.81;4926582;29;20126;-74
2023/02/22 05:26:17;;;;;;;12.10;7.20;;;;;;;0.83;100.00;98551.09;4934392;28;20028;-75
2023/02/22 05:28:43;;;;;;;13.30;6.15;;;;;;;0.76;100.00;98547.34;4915349;29;20960;-76
2023/02/22 05:31:08;;;;;;;12.30;7.07;;;;;;;0.67;100.00;98534.91;4937046;29;20032;-76
2023/02/22 05:33:34;;;;;;;13.88;6.90;;;;;;;0.56;100.00;98510.16;4937295;28;20041;-76
2023/02/22 05:35:59;;;;;;;14.77;7.10;;;;;;;0.81;100.00;98548.59;4925035;28;20074;-74
2023/02/22 05:38:24;;;;;;;13.00;7.20;;;;;;;0.84;100.00;98558.94;4926961;28;20441;-75
2023/02/22 05:40:50;;;;;;;13.63;7.18;;;;;;;0.79;100.00;98533.75;4991824;28;20038;-75
2023/02/22 05:43:15;;;;;;;15.75;7.20;;;;;;;0.92;100.00;98550.22;4932811;28;20036;-75
2023/02/22 05:45:41;;;;;;;12.85;7.47;;;;;;;0.87;100.00;98525.84;4934032;28;20102;-76
2023/02/22 05:48:06;;;;;;;12.38;7.57;;;;;;;0.85;100.00;98535.81;4950848;28;20047;-76
2023/02/22 05:50:32;;;;;;;12.15;7.13;;;;;;;0.90;100.00;98540.69;4969739;28;20086;-79
2023/02/22 05:52:58;;;;;;;16.92;7.57;;;;;;;0.90;100.00;98535.38;4925004;28;22679;-76
2023/02/22 05:55:23;;;;;;;15.68;7.60;;;;;;;0.84;100.00;98532.31;4929564;28;20036;-75
2023/02/22 05:57:49;;;;;;;16.23;7.68;;;;;;;0.83;100.00;98529.78;4924233;29;20036;-76
2023/02/22 06:00:18;;;;;;;14.27;9.05;;;;;;;0.85;100.00;98544.63;4952352;29;20467;-75
2023/02/22 06:02:44;;;;;;;12.57;7.60;;;;;;;0.69;100.00;98527.63;4929474;28;20042;-76
2023/02/22 06:05:12;;;;;;;13.77;8.52;;;;;;;0.79;100.00;98544.41;4936238;29;20027;-78
2023/02/22 06:07:37;;;;;;;12.82;8.10;;;;;;;0.86;100.00;98553.44;4928664;29;20028;-78
2023/02/22 06:10:03;;;;;;;18.55;10.52;;;;;;;0.83;100.00;98543.94;4919023;29;20436;-77
2023/02/22 06:12:28;;;;;;;17.80;12.23;;;;;;;0.67;100.00;98519.78;4919870;28;20055;-78
2023/02/22 06:14:54;;;;;;;15.10;8.88;;;;;;;0.83;100.00;98546.59;4927568;28;20416;-78
2023/02/22 06:17:19;;;;;;;16.27;8.70;;;;;;;0.88;100.00;98548.81;4991128;28;20021;-77
2023/02/22 06:19:44;;;;;;;17.45;7.53;;;;;;;0.90;100.00;98546.03;5034548;28;20026;-76
2023/02/22 06:22:16;;;;;;;14.18;6.63;;;;;;;0.94;100.00;98548.22;4979322;28;20062;-78
2023/02/22 06:24:42;;;;;;;12.43;6.65;;;;;;;1.03;100.00;98547.34;4964764;28;20038;-77
2023/02/22 06:27:07;;;;;;;15.82;8.02;;;;;;;1.13;100.00;98546.44;4950583;28;20035;-78
2023/02/22 06:29:33;;;;;;;20.25;9.23;;;;;;;1.25;100.00;98555.91;4955436;28;20095;-77
2023/02/22 06:31:58;;;;;;;16.80;9.48;;;;;;;1.31;100.00;98561.47;4963115;29;20019;-76
2023/02/22 06:34:23;;;;;;;22.13;9.35;;;;;;;1.31;100.00;98544.66;4981631;28;20034;-79
2023/02/22 06:36:49;;;;;;;17.13;9.38;;;;;;;1.43;100.00;98538.09;4945264;29;20035;-78
2023/02/22 06:39:15;;;;;;;24.10;9.48;;;;;;;1.62;100.00;98554.94;4996203;28;20509;-79
2023/02/22 06:41:42;;;;;;;21.88;9.40;;;;;;;1.56;100.00;98519.06;4962697;28;20051;-76
2023/02/22 06:44:10;;;;;;;15.52;7.43;;;;;;;1.92;100.00;98557.22;4926474;28;20039;-81
2023/02/22 06:46:36;;;;;;;14.38;7.63;;;;;;;2.03;100.00;98544.63;4971316;28;20024;-75
2023/02/22 06:49:01;;;;;;;15.45;6.57;;;;;;;2.24;100.00;98531.75;5008173;28;20024;-75
2023/02/22 06:51:27;;;;;;;13.38;6.18;;;;;;;2.53;100.00;98528.75;4946651;28;20544;-75
2023/02/22 06:53:53;;;;;;;11.88;6.15;;;;;;;3.00;100.00;98540.81;4934591;28;20504;-79
2023/02/22 06:56:19;;;;;;;11.55;5.80;;;;;;;3.39;100.00;98535.75;4931415;29;20023;-78
2023/02/22 06:58:44;;;;;;;16.10;5.55;;;;;;;3.91;100.00;98550.69;4924887;28;20036;-76
2023/02/22 07:01:10;;;;;;;11.60;5.85;;;;;;;4.13;100.00;98547.31;4939074;28;20118;-75
2023/02/22 07:03:35;;;;;;;11.02;5.43;;;;;;;4.80;100.00;98530.94;4928125;28;20028;-75
2023/02/22 07:06:01;;;;;;;14.48;5.32;;;;;;;5.36;100.00;98514.72;4994774;28;20144;-75
2023/02/22 07:08:27;;;;;;;8.75;5.18;;;;;;;5.69;100.00;98533.31;5014409;28;20031;-74
2023/02/22 07:10:53;;;;;;;8.80;4.43;;;;;;;5.98;100.00;98535.28;4924557;28;20094;-75
2023/02/22 07:13:18;;;;;;;14.45;5.28;;;;;;;5.69;100.00;98527.94;4933636;29;20019;-76
2023/02/22 07:15:44;;;;;;;14.68;6.07;;;;;;;5.60;100.00;98542.41;4947126;28;20074;-75
2023/02/22 07:18:09;;;;;;;13.55;6.88;;;;;;;6.14;100.00;98540.53;4969356;28;20090;-76
2023/02/22 07:20:35;;;;;;;16.00;6.85;;;;;;;7.10;100.00;98538.00;4932752;28;20021;-78
2023/02/22 07:23:00;;;;;;;17.65;6.18;;;;;;;8.68;100.00;98530.81;4956959;28;20603;-80
2023/02/22 07:25:26;;;;;;;16.25;5.63;;;;;;;9.61;100.00;98532.03;4930668;28;20038;-79
2023/02/22 07:27:51;;;;;;;11.65;5.35;;;;;;;9.96;100.00;98534.63;4927764;29;20031;-78
2023/02/22 07:30:23;;;;;;;13.70;5.18;;;;;;;10.34;100.00;98550.25;4928638;28;20027;-73
2023/02/22 07:32:50;;;;;;;9.02;5.05;;;;;;;10.63;100.00;98540.03;4928928;28;20036;-74
2023/02/22 07:35:21;;;;;;;10.77;4.93;;;;;;;11.32;100.00;98534.03;4938779;28;20501;-72
2023/02/22 07:37:47;;;;;;;11.45;5.05;;;;;;;11.19;100.00;98534.91;4931475;28;20081;-74
2023/02/22 07:40:13;;;;;;;9.20;4.32;;;;;;;12.15;100.00;98538.59;4964502;28;20024;-74
2023/02/22 07:42:55;;;;;;;13.50;4.50;;;;;;;12.49;90.87;98548.13;4934231;28;20723;-74
2023/02/22 07:45:22;;;;;;;8.02;4.65;;;;;;;13.85;77.59;98542.63;4972084;28;20032;-77
2023/02/22 07:47:47;;;;;;;15.60;4.85;;;;;;;14.31;75.19;98540.28;4925770;28;20032;-76
2023/02/22 07:50:15;;;;;;;9.68;4.97;;;;;;;12.63;73.17;98550.75;4939225;28;20032;-78
2023/02/22 07:52:44;;;;;;;18.60;5.15;;;;;;;11.89;77.82;98539.59;4940429;28;20073;-77
2023/02/22 07:55:09;;;;;;;;;;;;;;;11.96;91.82;98548.53;4941931;29;20058;-78
2023/02/22 07:57:34;;;;;;;8.45;4.72;;;;;;;11.91;89.09;98537.50;4928683;29;19966;-77
2023/02/22 08:00:00;;;;;;;9.85;5.18;;;;;;;11.83;87.22;98530.44;4931766;28;20039;-77
2023/02/22 08:02:25;;;;;;;8.95;5.45;;;;;;;12.83;76.87;98539.66;4938937;28;20614;-79
2023/02/22 08:04:51;;;;;;;10.77;5.95;;;;;;;13.41;71.79;98541.13;4922603;28;20119;-79
2023/02/22 08:07:16;;;;;;;10.30;5.80;;;;;;;12.83;71.54;98539.66;4942434;28;20023;-78
2023/02/22 08:09:41;;;;;;;11.18;6.43;;;;;;;12.11;78.58;98537.38;4937175;28;20489;-74
2023/02/22 08:12:07;;;;;;;11.88;5.53;;;;;;;12.45;80.35;98538.78;4922198;28;20062;-74
2023/02/22 08:14:32;;;;;;;13.70;6.65;;;;;;;13.90;69.64;98531.91;4929743;28;20517;-79
2023/02/22 08:16:57;;;;;;;14.85;6.15;;;;;;;13.98;65.29;98538.91;4943436;29;20028;-76
2023/02/22 08:19:23;;;;;;;16.25;7.38;;;;;;;13.98;68.52;98545.16;4934990;29;20036;-79
2023/02/22 08:21:48;;;;;;;17.67;8.45;;;;;;;13.95;69.51;98542.09;4928985;28;20462;-75
2023/02/22 08:24:13;;;;;;;16.48;9.00;;;;;;;13.05;71.62;98531.94;4964368;28;20050;-75
2023/02/22 08:26:44;;;;;;;29.95;12.60;;;;;;;13.01;79.40;98533.44;4925203;28;20525;-74
2023/02/22 08:29:55;;;;;;;31.48;13.10;;;;;;;14.01;77.66;98536.53;4938681;29;20082;-78
2023/02/22 08:32:22;;;;;;;21.55;10.23;;;;;;;14.19;70.29;98538.34;4929915;28;20086;-74
2023/02/22 08:34:48;;;;;;;15.77;6.50;;;;;;;14.23;71.75;98531.41;4935410;28;20082;-75
2023/02/22 08:37:14;;;;;;;12.32;5.72;;;;;;;14.87;72.12;98545.19;4931043;28;20055;-76
2023/02/22 08:39:39;;;;;;;13.50;5.07;;;;;;;15.92;63.35;98537.03;4940817;28;20019;-72
2023/02/22 08:42:05;;;;;;;9.25;4.32;;;;;;;15.58;63.71;98539.63;4936337;28;20043;-78
2023/02/22 08:44:30;;;;;;;11.60;4.95;;;;;;;15.40;65.14;98537.06;4945001;28;20073;-78
2023/02/22 08:46:55;;;;;;;6.82;4.65;;;;;;;15.98;64.69;98533.31;4931389;29;20028;-79
2023/02/22 08:49:21;;;;;;;9.93;5.10;;;;;;;16.26;63.64;98535.19;4969403;28;20026;-78
2023/02/22 08:51:46;;;;;;;9.25;4.70;;;;;;;16.55;61.68;98535.09;4956200;28;20024;-77
2023/02/22 08:54:12;;;;;;;8.13;5.10;;;;;;;17.89;58.06;98527.63;4940257;28;20034;-75
2023/02/22 08:56:37;;;;;;;14.10;4.78;;;;;;;18.83;55.03;98527.09;4938399;28;20035;-75
2023/02/22 08:59:02;;;;;;;11.32;4.72;;;;;;;19.68;51.57;98527.03;4935616;28;20089;-76
2023/02/22 09:01:28;;;;;;;7.78;4.43;;;;;;;19.75;50.15;98517.69;4928615;28;20031;-78
2023/02/22 09:03:54;;;;;;;11.68;5.35;;;;;;;19.95;50.34;98530.66;4930482;28;20028;-78
2023/02/22 09:06:21;;;;;;;12.43;4.60;;;;;;;20.67;48.73;98529.66;4929661;29;20393;-77
2023/02/22 09:08:46;;;;;;;7.90;4.80;;;;;;;18.44;52.75;98499.13;4934819;28;20027;-78
2023/02/22 09:11:12;;;;;;;9.32;5.10;;;;;;;18.98;50.82;98498.97;4941714;28;20042;-76
2023/02/22 09:13:37;;;;;;;12.80;5.45;;;;;;;19.25;52.24;98518.03;4977676;28;20026;-77
2023/02/22 09:16:02;;;;;;;9.13;5.05;;;;;;;19.66;50.35;98507.25;4970832;28;20046;-76
2023/02/22 09:18:28;;;;;;;6.32;4.43;;;;;;;20.04;49.24;98515.28;4926912;28;20034;-74
2023/02/22 09:20:53;;;;;;;12.73;5.30;;;;;;;19.87;50.10;98508.13;4932091;28;20050;-74
2023/02/22 09:23:20;;;;;;;10.10;4.55;;;;;;;20.36;49.69;98512.31;4943093;28;20059;-73
2023/02/22 09:25:49;;;;;;;8.90;5.53;;;;;;;21.29;47.36;98513.84;4931349;28;20090;-75
2023/02/22 09:28:15;;;;;;;8.90;4.70;;;;;;;21.81;45.85;98519.97;4969953;28;20558;-75
2023/02/22 09:30:41;;;;;;;13.60;4.80;;;;;;;23.28;44.07;98502.50;4932613;28;20035;-73
2023/02/22 09:33:12;;;;;;;10.43;4.72;;;;;;;24.36;40.89;98505.44;4934276;28;20036;-75
2023/02/22 09:35:41;;;;;;;8.93;4.82;;;;;;;24.67;40.28;98503.03;4924595;28;20500;-75
2023/02/22 09:38:08;;;;;;;10.45;4.97;;;;;;;24.65;38.75;98504.44;4922358;28;20032;-77
2023/02/22 09:40:43;;;;;;;7.28;4.20;;;;;;;25.54;38.71;98495.88;4942311;28;20029;-77
2023/02/22 09:43:27;;;;;;;10.45;4.57;;;;;;;24.08;40.04;98499.00;4939412;29;20114;-79
2023/02/22 09:46:17;;;;;;;8.57;5.03;;;;;;;24.20;39.00;98504.06;4926984;28;20153;-76
2023/02/22 09:49:01;;;;;;;7.25;4.90;;;;;;;22.00;41.39;98504.44;4927454;28;20027;-76
2023/02/22 09:51:51;;;;;;;7.05;5.10;;;;;;;20.99;43.60;98488.09;4925612;28;20250;-76
2023/02/22 09:54:33;;;;;;;8.50;5.18;;;;;;;21.31;43.50;98499.81;4931458;28;20055;-77
2023/02/22 09:57:02;;;;;;;8.98;4.85;;;;;;;21.98;42.42;98487.38;4933269;28;20396;-75
2023/02/22 09:59:33;;;;;;;9.27;4.95;;;;;;;23.12;41.74;98483.38;4923957;28;20046;-75
2023/02/22 10:02:13;;;;;;;11.55;4.93;;;;;;;22.09;42.09;98477.13;4946791;29;20085;-75
2023/02/22 10:04:46;;;;;;;10.32;5.20;;;;;;;22.60;41.52;98482.22;4935443;29;20025;-79
2023/02/22 10:07:53;;;;;;;9.88;5.03;;;;;;;23.01;40.41;98481.84;4934374;28;20115;-79
2023/02/22 10:10:22;;;;;;;10.75;4.60;;;;;;;22.37;42.14;98472.75;4997223;28;20025;-79
2023/02/22 10:13:30;;;;;;;10.18;5.93;;;;;;;21.82;42.35;98483.06;4954528;28;20044;-79
2023/02/22 10:16:31;;;;;;;9.80;5.28;;;;;;;21.79;43.30;98484.44;4937248;28;20046;-77
2023/02/22 10:19:06;;;;;;;10.02;5.50;;;;;;;20.52;45.31;98483.72;4952086;28;20040;-77
2023/02/22 10:21:44;;;;;;;9.73;5.28;;;;;;;21.40;44.31;98487.13;4925377;28;20058;-78
2023/02/22 10:24:44;;;;;;;8.95;4.97;;;;;;;21.68;42.15;98471.84;4990177;28;20032;-78
2023/02/22 10:27:21;;;;;;;9.32;5.03;;;;;;;23.44;40.27;98472.78;4941883;28;20040;-76
2023/02/22 10:30:03;;;;;;;8.68;5.22;;;;;;;23.26;40.74;98466.09;4942589;28;20027;-78
2023/02/22 10:32:35;;;;;;;6.13;4.47;;;;;;;23.87;40.53;98464.47;4937675;28;20023;-76
2023/02/22 10:35:04;;;;;;;8.27;5.25;;;;;;;23.65;39.94;98465.03;4940752;28;20642;-75
2023/02/22 10:37:33;;;;;;;;;;;;;;;21.99;42.02;98463.41;4937977;29;20110;-76
2023/02/22 10:40:04;;;;;;;;;;;;;;;22.89;41.82;98465.66;4934916;28;20000;-76
2023/02/22 10:42:30;;;;;;;8.13;5.55;;;;;;;24.44;39.79;98460.56;4916899;28;20451;-75
2023/02/22 10:44:57;;;;;;;8.45;5.35;;;;;;;25.08;38.53;98462.72;4947321;28;20128;-75
2023/02/22 10:47:23;;;;;;;10.82;6.00;;;;;;;24.89;38.86;98452.56;4971053;28;20482;-75
2023/02/22 10:49:59;;;;;;;20.98;6.00;;;;;;;26.06;38.36;98448.44;4924459;28;20040;-75
2023/02/22 10:52:30;;;;;;;10.77;5.65;;;;;;;24.99;38.78;98447.94;4939074;28;20063;-75
2023/02/22 10:54:57;;;;;;;10.15;5.35;;;;;;;27.00;37.24;98451.31;4938681;28;20027;-75
2023/02/22 10:57:34;;;;;;;9.20;5.23;;;;;;;26.89;36.49;98457.16;4918037;29;20115;-76
2023/02/22 11:00:28;;;;;;;8.90;5.10;;;;;;;27.58;34.97;98441.88;4966013;28;20025;-75
2023/02/22 11:03:02;;;;;;;8.25;5.32;;;;;;;27.33;34.60;98443.47;4938278;28;20079;-74
2023/02/22 11:05:38;;;;;;;8.90;5.07;;;;;;;27.11;36.01;98445.16;4994812;28;20017;-74
2023/02/22 11:08:28;;;;;;;8.57;5.43;;;;;;;28.14;34.34;98439.34;4962985;28;20032;-78
2023/02/22 11:10:56;;;;;;;8.18;5.25;;;;;;;29.44;33.66;98430.59;4926694;28;20041;-75
2023/02/22 11:13:27;;;;;;;8.45;4.90;;;;;;;30.89;31.29;98431.97;4927908;28;20020;-74
2023/02/22 11:15:54;;;;;;;7.95;4.40;;;;;;;32.04;30.75;98425.28;4981536;28;20431;-74
2023/02/22 11:18:28;;;;;;;7.00;4.40;;;;;;;32.37;30.18;98416.63;4923689;28;20043;-75
2023/02/22 11:21:10;;;;;;;8.40;4.50;;;;;;;30.80;31.16;98426.47;4937302;28;20059;-76
2023/02/22 11:23:38;;;;;;;6.05;4.05;;;;;;;32.07;29.62;98419.00;4925096;28;20020;-77
2023/02/22 11:26:13;;;;;;;8.07;4.45;;;;;;;29.99;31.53;98416.78;4940594;28;20043;-77
2023/02/22 11:28:48;;;;;;;7.25;5.03;;;;;;;26.31;34.82;98415.69;4946103;29;20032;-76
2023/02/22 11:31:21;;;;;;;8.63;5.20;;;;;;;23.75;38.11;98420.75;4914388;28;20044;-76
2023/02/22 11:33:58;;;;;;;11.07;4.93;;;;;;;23.95;39.48;98411.31;4924383;28;20032;-77
2023/02/22 11:36:41;;;;;;;7.90;4.88;;;;;;;23.03;40.30;98404.28;4949653;28;20049;-80
2023/02/22 11:39:34;;;;;;;8.10;4.85;;;;;;;22.04;42.14;98424.81;4956051;28;20482;-76
2023/02/22 11:42:26;;;;;;;8.18;5.40;;;;;;;21.45;44.08;98418.31;4926647;28;20063;-74